Terminal Aerodrome Forecast
Issued by NWS Shreveport, LA

Home | Current Version | Previous Version | Text Only | Print | Product List | Glossary On
Versions: 1 2 3 4 5 6 7 8 9 10 11 12 13 14 15 16 17 18 19
000
FTUS44 KSHV 270825 AAA
TAFMLU
TAF AMD
KMLU 270825Z 2708/2806 VRB03KT P6SM VCSH SCT012 SCT060 BKN090
      TEMPO 2708/2710 BKN012
     FM271000 VRB03KT P6SM VCSH SCT008 BKN012
      TEMPO 2710/2712 BKN007
     FM271200 VRB03KT P6SM VCSH OVC007
      TEMPO 2713/2715 5SM -TSRA BR OVC007CB
     FM271500 VRB05KT P6SM VCTS OVC014CB
     FM271800 24007KT P6SM VCSH BKN025
     FM272000 24007KT P6SM VCTS BKN040CB
     FM280300 VRB03KT P6SM SCT050 BKN100=

USA.gov is the U.S. government's official web portal to all federal, state and local government web resources and services.